createdAt,value
2023-07-03T00:00:05.843Z,62.65
2023-07-03T00:01:05.845Z,62.65
2023-07-03T00:02:05.850Z,62.89
2023-07-03T00:03:06.880Z,63.60
2023-07-03T00:04:05.898Z,63.38
2023-07-03T00:05:05.877Z,63.29
2023-07-03T00:06:05.793Z,62.49
2023-07-03T00:07:05.783Z,64.05
2023-07-03T00:08:05.757Z,62.18
2023-07-03T00:09:06.762Z,62.31
2023-07-03T00:10:05.902Z,62.45
2023-07-03T00:11:05.748Z,63.21
2023-07-03T00:12:05.731Z,62.74
2023-07-03T00:13:05.722Z,63.24
2023-07-03T00:14:05.729Z,62.91
2023-07-03T00:15:05.710Z,63.15
2023-07-03T00:16:05.730Z,62.59
2023-07-03T00:17:05.686Z,62.12
2023-07-03T00:18:05.677Z,61.37
2023-07-03T00:19:05.659Z,63.18
2023-07-03T00:20:05.662Z,62.36
2023-07-03T00:21:05.638Z,63.12
2023-07-03T00:22:05.636Z,62.47
2023-07-03T00:23:05.615Z,62.64
2023-07-03T00:24:05.621Z,62.52
2023-07-03T00:25:05.609Z,62.74
2023-07-03T00:26:05.603Z,62.66
2023-07-03T00:27:05.590Z,63.55
2023-07-03T00:28:05.572Z,62.93
2023-07-03T00:29:05.572Z,62.40
2023-07-03T00:30:05.563Z,61.66
2023-07-03T00:31:05.544Z,63.37
2023-07-03T00:32:05.565Z,63.00
2023-07-03T00:33:05.529Z,63.09
2023-07-03T00:34:05.533Z,62.14
2023-07-03T00:35:05.506Z,62.00
2023-07-03T00:36:05.500Z,62.69
2023-07-03T00:37:05.486Z,62.49
2023-07-03T00:38:05.494Z,62.73
2023-07-03T00:39:05.491Z,64.45
2023-07-03T00:40:05.460Z,64.42
2023-07-03T00:41:05.451Z,62.30
2023-07-03T00:42:05.440Z,62.41
2023-07-03T00:43:05.455Z,62.19
2023-07-03T00:44:05.421Z,62.13
2023-07-03T00:45:05.416Z,62.38
2023-07-03T00:46:05.419Z,62.21
2023-07-03T00:47:05.397Z,61.17
2023-07-03T00:48:05.430Z,62.16
2023-07-03T00:49:05.387Z,64.31
2023-07-03T00:50:05.371Z,62.54
2023-07-03T00:51:05.342Z,63.96
2023-07-03T00:52:06.378Z,62.42
2023-07-03T00:53:05.337Z,64.00
2023-07-03T00:54:05.326Z,63.73
2023-07-03T00:55:05.312Z,63.71
2023-07-03T00:56:05.298Z,63.47
2023-07-03T00:57:05.308Z,62.37
2023-07-03T00:58:05.280Z,64.33
2023-07-03T00:59:05.276Z,62.99
2023-07-03T01:00:05.258Z,64.76
2023-07-03T01:01:05.262Z,62.43
2023-07-03T01:02:05.275Z,63.66
2023-07-03T01:03:05.243Z,63.08
2023-07-03T01:04:05.222Z,62.11
2023-07-03T01:05:05.277Z,62.43
2023-07-03T01:06:05.265Z,62.89
2023-07-03T01:07:05.191Z,62.81
2023-07-03T01:08:05.187Z,62.93
2023-07-03T01:09:05.189Z,63.21
2023-07-03T01:10:05.181Z,63.32
2023-07-03T01:11:05.162Z,61.53
2023-07-03T01:12:05.148Z,62.27
2023-07-03T01:13:05.147Z,62.48
2023-07-03T01:14:05.122Z,62.05
2023-07-03T01:15:05.249Z,62.33
2023-07-03T01:16:05.142Z,62.31
2023-07-03T01:17:05.096Z,62.31
2023-07-03T01:18:05.081Z,62.37
2023-07-03T01:19:05.072Z,63.21
2023-07-03T01:20:05.084Z,62.75
2023-07-03T01:21:05.066Z,62.64
2023-07-03T01:22:05.041Z,62.54
2023-07-03T01:23:05.032Z,62.80
2023-07-03T01:24:05.024Z,63.89
2023-07-03T01:25:05.034Z,63.36
2023-07-03T01:26:05.000Z,62.32
2023-07-03T01:27:05.038Z,62.64
2023-07-03T01:28:04.998Z,62.77
2023-07-03T01:29:04.999Z,63.54
2023-07-03T01:30:04.987Z,62.86
2023-07-03T01:31:05.003Z,62.74
2023-07-03T01:32:04.947Z,64.20
2023-07-03T01:33:04.950Z,63.54
2023-07-03T01:34:04.960Z,63.72
2023-07-03T01:35:04.915Z,62.47
2023-07-03T01:36:04.897Z,63.02
2023-07-03T01:37:04.893Z,63.86
2023-07-03T01:38:04.880Z,63.45
2023-07-03T01:39:04.884Z,63.24
2023-07-03T01:40:04.918Z,62.49
2023-07-03T01:41:04.859Z,62.69
2023-07-03T01:42:04.835Z,61.41
2023-07-03T01:43:04.839Z,62.77
2023-07-03T01:44:04.834Z,63.40
2023-07-03T01:45:04.806Z,63.02
2023-07-03T01:46:04.849Z,61.77
2023-07-03T01:47:04.782Z,62.71
2023-07-03T01:48:04.892Z,63.56
2023-07-03T01:49:04.778Z,63.89
2023-07-03T01:50:04.770Z,61.63
2023-07-03T01:51:04.748Z,62.48
2023-07-03T01:52:04.758Z,64.84
2023-07-03T01:53:04.740Z,63.21
2023-07-03T01:54:04.735Z,61.88
2023-07-03T01:55:04.744Z,63.81
2023-07-03T01:56:04.713Z,63.00
2023-07-03T01:57:04.722Z,61.95
2023-07-03T01:58:04.859Z,62.98
2023-07-03T01:59:04.673Z,62.96
2023-07-03T02:00:04.678Z,63.19
2023-07-03T02:01:04.681Z,64.52
2023-07-03T02:02:04.692Z,62.43
2023-07-03T02:03:04.704Z,62.58
2023-07-03T02:04:04.617Z,63.76
2023-07-03T02:05:04.706Z,63.33
2023-07-03T02:06:04.594Z,63.10
2023-07-03T02:07:04.739Z,63.27
2023-07-03T02:08:04.576Z,63.96
2023-07-03T02:09:04.564Z,62.70
2023-07-03T02:10:04.568Z,64.62
2023-07-03T02:11:04.570Z,64.24
2023-07-03T02:12:04.543Z,63.79
2023-07-03T02:13:04.543Z,62.89
2023-07-03T02:14:04.515Z,64.45
2023-07-03T02:15:04.514Z,63.88
2023-07-03T02:16:04.521Z,66.64
2023-07-03T02:17:04.583Z,66.90
2023-07-03T02:18:04.508Z,64.95
2023-07-03T02:19:04.480Z,64.19
2023-07-03T02:20:04.454Z,65.26
2023-07-03T02:21:04.460Z,64.76
2023-07-03T02:22:04.462Z,65.14
2023-07-03T02:23:04.430Z,65.46
2023-07-03T02:24:04.416Z,66.89
2023-07-03T02:25:04.421Z,64.66
2023-07-03T02:26:04.409Z,63.44
2023-07-03T02:27:04.386Z,64.91
2023-07-03T02:28:04.374Z,64.19
2023-07-03T02:29:04.375Z,64.82
2023-07-03T02:30:04.380Z,65.69
2023-07-03T02:31:04.361Z,63.81
2023-07-03T02:32:04.336Z,64.47
2023-07-03T02:33:04.335Z,65.96
2023-07-03T02:34:04.329Z,66.42
2023-07-03T02:35:04.307Z,66.14
2023-07-03T02:36:04.310Z,64.20
2023-07-03T02:37:04.280Z,64.66
2023-07-03T02:38:04.275Z,64.44
2023-07-03T02:39:04.287Z,63.55
2023-07-03T02:40:04.261Z,64.09
2023-07-03T02:41:04.275Z,64.15
2023-07-03T02:42:04.230Z,65.52
2023-07-03T02:43:04.221Z,64.28
2023-07-03T02:44:04.241Z,64.47
2023-07-03T02:45:04.204Z,65.26
2023-07-03T02:46:04.240Z,66.36
2023-07-03T02:47:04.241Z,63.90
2023-07-03T02:48:04.220Z,65.24
2023-07-03T02:49:04.166Z,65.16
2023-07-03T02:50:04.208Z,65.61
2023-07-03T02:51:04.155Z,66.46
2023-07-03T02:52:04.156Z,64.12
2023-07-03T02:53:04.142Z,64.98
2023-07-03T02:54:04.115Z,65.48
2023-07-03T02:55:04.108Z,65.41
2023-07-03T02:56:04.090Z,63.93
2023-07-03T02:57:04.079Z,64.78
2023-07-03T02:58:04.082Z,64.61
2023-07-03T02:59:04.089Z,66.07
2023-07-03T03:00:04.052Z,64.88
2023-07-03T03:01:04.069Z,64.56
2023-07-03T03:02:04.034Z,65.33
2023-07-03T03:03:04.103Z,64.60
2023-07-03T03:04:04.082Z,65.89
2023-07-03T03:05:04.002Z,65.92
2023-07-03T03:06:03.992Z,64.00
2023-07-03T03:07:03.989Z,65.73
2023-07-03T03:08:03.972Z,62.81
2023-07-03T03:09:03.959Z,65.25
2023-07-03T03:10:03.950Z,64.25
2023-07-03T03:11:03.937Z,64.23
2023-07-03T03:12:03.940Z,62.21
2023-07-03T03:13:03.918Z,64.80
2023-07-03T03:14:03.909Z,65.06
2023-07-03T03:15:03.908Z,65.19
2023-07-03T03:16:03.901Z,65.66
2023-07-03T03:17:03.974Z,64.81
2023-07-03T03:18:03.983Z,64.41
2023-07-03T03:19:03.869Z,64.68
2023-07-03T03:20:03.847Z,64.32
2023-07-03T03:21:03.920Z,64.58
2023-07-03T03:22:03.830Z,65.64
2023-07-03T03:23:03.837Z,65.09
2023-07-03T03:24:03.812Z,64.28
2023-07-03T03:25:03.809Z,65.17
2023-07-03T03:26:03.809Z,64.31
2023-07-03T03:27:29.689Z,65.16
2023-07-03T03:28:03.794Z,65.86
2023-07-03T03:29:03.756Z,64.74
2023-07-03T03:30:03.783Z,66.56
2023-07-03T03:31:03.754Z,65.38
2023-07-03T03:32:03.733Z,64.55
2023-07-03T03:33:03.752Z,64.68
2023-07-03T03:34:03.707Z,65.44
2023-07-03T03:35:03.781Z,66.75
2023-07-03T03:36:03.713Z,65.61
2023-07-03T03:37:03.685Z,65.77
2023-07-03T03:38:03.701Z,65.65
2023-07-03T03:39:03.652Z,69.62
2023-07-03T03:40:03.649Z,66.88
2023-07-03T03:41:03.643Z,64.05
2023-07-03T03:42:03.622Z,65.94
2023-07-03T03:43:03.611Z,66.07
2023-07-03T03:44:03.627Z,64.16
2023-07-03T03:45:03.600Z,65.09
2023-07-03T03:46:03.582Z,65.42
2023-07-03T03:47:03.582Z,66.29
2023-07-03T03:48:03.744Z,65.16
2023-07-03T03:49:03.618Z,65.79
2023-07-03T03:50:03.536Z,65.02
2023-07-03T03:51:03.530Z,64.73
2023-07-03T03:52:03.524Z,66.74
2023-07-03T03:53:03.519Z,66.18
2023-07-03T03:54:03.512Z,65.96
2023-07-03T03:55:03.498Z,65.64
2023-07-03T03:56:03.481Z,66.97
2023-07-03T03:57:03.472Z,64.98
2023-07-03T03:58:03.471Z,66.60
2023-07-03T03:59:03.456Z,66.49
2023-07-03T04:00:03.440Z,66.20
2023-07-03T04:01:03.430Z,63.49
2023-07-03T04:02:03.543Z,65.23
2023-07-03T04:03:03.462Z,65.84
2023-07-03T04:04:03.475Z,65.17
2023-07-03T04:05:03.414Z,65.59
2023-07-03T04:06:03.392Z,66.51
2023-07-03T04:07:03.373Z,64.97
2023-07-03T04:08:03.365Z,67.25
2023-07-03T04:09:03.349Z,67.41
2023-07-03T04:10:03.337Z,64.57
2023-07-03T04:11:03.318Z,66.95
2023-07-03T04:12:03.341Z,66.34
2023-07-03T04:13:03.296Z,65.73
2023-07-03T04:14:03.334Z,66.34
2023-07-03T04:15:03.285Z,66.17
2023-07-03T04:16:03.575Z,67.44
2023-07-03T04:17:03.272Z,67.32
2023-07-03T04:18:03.319Z,64.63
2023-07-03T04:19:03.255Z,66.76
2023-07-03T04:20:03.238Z,65.59
2023-07-03T04:21:03.238Z,66.09
2023-07-03T04:22:03.222Z,65.62
2023-07-03T04:23:03.206Z,66.21
2023-07-03T04:24:03.187Z,64.99
2023-07-03T04:25:03.178Z,65.66
2023-07-03T04:26:03.180Z,65.59
2023-07-03T04:27:03.158Z,64.20
2023-07-03T04:28:03.148Z,65.81
2023-07-03T04:29:03.142Z,65.83
2023-07-03T04:30:03.140Z,64.98
2023-07-03T04:31:03.128Z,65.50
2023-07-03T04:32:03.160Z,67.06
2023-07-03T04:33:03.156Z,65.22
2023-07-03T04:34:03.094Z,65.11
2023-07-03T04:35:03.094Z,65.93
2023-07-03T04:36:03.074Z,65.60
2023-07-03T04:37:03.056Z,66.45
2023-07-03T04:38:03.047Z,65.18
2023-07-03T04:39:03.040Z,66.89
2023-07-03T04:40:03.037Z,67.10
2023-07-03T04:41:03.015Z,66.63
2023-07-03T04:42:03.004Z,66.99
2023-07-03T04:43:03.015Z,66.10
2023-07-03T04:44:02.993Z,65.97
2023-07-03T04:45:03.063Z,65.65
2023-07-03T04:46:02.992Z,66.11
2023-07-03T04:47:02.953Z,67.25
2023-07-03T04:48:02.940Z,64.79
2023-07-03T04:49:02.943Z,66.47
2023-07-03T04:50:02.936Z,66.87
2023-07-03T04:51:02.910Z,67.48
2023-07-03T04:52:02.904Z,67.22
2023-07-03T04:53:02.892Z,66.84
2023-07-03T04:54:02.890Z,66.30
2023-07-03T04:55:02.871Z,66.64
2023-07-03T04:56:02.879Z,64.04
2023-07-03T04:57:02.857Z,66.40
2023-07-03T04:58:02.841Z,67.30
2023-07-03T04:59:02.840Z,66.30
2023-07-03T05:00:02.821Z,66.38
2023-07-03T05:01:02.898Z,67.12
2023-07-03T05:02:02.804Z,66.83
2023-07-03T05:03:02.817Z,65.88
2023-07-03T05:04:03.068Z,64.93
2023-07-03T05:05:02.933Z,65.84
2023-07-03T05:06:03.755Z,65.35
2023-07-03T05:07:02.750Z,64.94
2023-07-03T05:08:02.777Z,67.28
2023-07-03T05:09:02.737Z,67.95
2023-07-03T05:10:02.818Z,66.86
2023-07-03T05:11:02.702Z,67.35
2023-07-03T05:12:02.708Z,62.47
2023-07-03T05:13:02.703Z,66.63
2023-07-03T05:14:02.678Z,65.69
2023-07-03T05:15:02.670Z,65.92
2023-07-03T05:16:02.724Z,66.01
2023-07-03T05:17:02.671Z,65.36
2023-07-03T05:18:02.690Z,65.92
2023-07-03T05:19:02.632Z,65.14
2023-07-03T05:20:02.618Z,65.02
2023-07-03T05:21:02.618Z,65.13
2023-07-03T05:22:02.613Z,64.97
2023-07-03T05:23:02.593Z,66.76
2023-07-03T05:24:02.569Z,65.57
2023-07-03T05:25:02.569Z,64.52
2023-07-03T05:26:02.559Z,64.54
2023-07-03T05:27:02.558Z,66.47
2023-07-03T05:28:02.528Z,64.76
2023-07-03T05:29:02.514Z,64.74
2023-07-03T05:30:03.512Z,63.70
2023-07-03T05:31:02.579Z,65.66
2023-07-03T05:32:02.529Z,65.33
2023-07-03T05:33:02.525Z,64.80
2023-07-03T05:34:02.463Z,64.27
2023-07-03T05:35:02.461Z,66.02
2023-07-03T05:36:02.462Z,65.86
2023-07-03T05:37:02.429Z,64.85
2023-07-03T05:38:02.433Z,64.67
2023-07-03T05:39:02.476Z,64.49
2023-07-03T05:40:02.411Z,64.24
2023-07-03T05:41:02.405Z,63.43
2023-07-03T05:42:02.387Z,62.67
2023-07-03T05:43:02.376Z,63.63
2023-07-03T05:44:02.380Z,63.93
2023-07-03T05:45:02.367Z,63.53
2023-07-03T05:46:02.363Z,62.95
2023-07-03T05:47:02.399Z,63.00
2023-07-03T05:48:02.370Z,62.98
2023-07-03T05:49:02.319Z,62.69
2023-07-03T05:50:02.328Z,63.19
2023-07-03T05:51:02.304Z,63.55
2023-07-03T05:52:02.283Z,64.07
2023-07-03T05:53:02.284Z,64.81
2023-07-03T05:54:02.265Z,64.98
2023-07-03T05:55:02.267Z,65.09
2023-07-03T05:56:02.240Z,64.86
2023-07-03T05:57:02.230Z,64.41
2023-07-03T05:58:02.224Z,64.66
2023-07-03T05:59:02.229Z,63.28
2023-07-03T06:00:02.275Z,64.25
2023-07-03T06:01:02.233Z,65.31
2023-07-03T06:02:02.182Z,63.83
2023-07-03T06:03:02.250Z,64.83
2023-07-03T06:04:02.210Z,63.47
2023-07-03T06:05:02.259Z,64.18
2023-07-03T06:06:02.148Z,64.29
2023-07-03T06:07:02.168Z,64.14
2023-07-03T06:08:02.132Z,64.39
2023-07-03T06:09:02.153Z,64.34
2023-07-03T06:10:02.112Z,63.98
2023-07-03T06:11:02.089Z,63.32
2023-07-03T06:12:02.088Z,63.61
2023-07-03T06:13:02.082Z,63.54
2023-07-03T06:14:02.077Z,63.86
2023-07-03T06:15:02.071Z,62.89
2023-07-03T06:16:02.048Z,62.68
2023-07-03T06:17:02.059Z,64.10
2023-07-03T06:18:02.171Z,64.06
2023-07-03T06:19:02.018Z,64.30
2023-07-03T06:20:02.021Z,63.56
2023-07-03T06:21:02.003Z,63.84
2023-07-03T06:22:01.988Z,63.84
2023-07-03T06:23:01.977Z,64.06
2023-07-03T06:24:03.406Z,63.12
2023-07-03T06:25:01.955Z,62.82
2023-07-03T06:26:01.957Z,63.91
2023-07-03T06:27:01.951Z,62.96
2023-07-03T06:28:01.942Z,63.85
2023-07-03T06:29:01.923Z,63.32
2023-07-03T06:30:01.906Z,63.44
2023-07-03T06:31:02.047Z,62.77
2023-07-03T06:32:01.896Z,63.73
2023-07-03T06:33:01.938Z,64.22
2023-07-03T06:34:01.880Z,69.91
2023-07-03T06:35:05.321Z,63.31
2023-07-03T06:36:03.896Z,63.13
2023-07-03T06:37:01.846Z,63.58
2023-07-03T06:38:01.831Z,62.95
2023-07-03T06:39:01.821Z,63.78
2023-07-03T06:40:01.817Z,62.74
2023-07-03T06:41:01.809Z,62.89
2023-07-03T06:42:01.808Z,62.74
2023-07-03T06:43:01.789Z,62.94
2023-07-03T06:44:01.768Z,63.15
2023-07-03T06:45:01.774Z,62.13
2023-07-03T06:46:01.916Z,62.33
2023-07-03T06:47:01.868Z,62.49
2023-07-03T06:48:01.761Z,62.87
2023-07-03T06:49:01.734Z,63.39
2023-07-03T06:50:01.710Z,62.51
2023-07-03T06:51:01.716Z,62.62
2023-07-03T06:52:01.727Z,62.31
2023-07-03T06:53:01.690Z,62.92
2023-07-03T06:54:01.668Z,62.16
2023-07-03T06:55:01.671Z,62.45
2023-07-03T06:56:01.661Z,64.10
2023-07-03T06:57:01.637Z,62.61
2023-07-03T06:58:01.669Z,63.03
2023-07-03T06:59:01.622Z,62.31
2023-07-03T07:00:01.621Z,61.39
2023-07-03T07:01:01.603Z,61.94
2023-07-03T07:02:01.747Z,62.65
2023-07-03T07:03:01.684Z,63.39
2023-07-03T07:04:01.610Z,62.13
2023-07-03T07:05:03.213Z,62.22
2023-07-03T07:06:02.675Z,62.98
2023-07-03T07:07:01.542Z,63.67
2023-07-03T07:08:01.533Z,62.54
2023-07-03T07:09:01.535Z,62.29
2023-07-03T07:10:01.552Z,62.61
2023-07-03T07:11:01.505Z,62.97
2023-07-03T07:12:01.493Z,62.52
2023-07-03T07:13:01.489Z,63.01
2023-07-03T07:14:01.487Z,63.22
2023-07-03T07:15:01.469Z,61.87
2023-07-03T07:16:01.463Z,62.85
2023-07-03T07:17:01.642Z,62.99
2023-07-03T07:18:01.548Z,62.67
2023-07-03T07:19:01.440Z,62.32
2023-07-03T07:20:01.419Z,62.62
2023-07-03T07:21:01.414Z,62.50
2023-07-03T07:22:01.398Z,62.31
2023-07-03T07:23:01.400Z,62.44
2023-07-03T07:24:01.394Z,62.23
2023-07-03T07:25:01.367Z,61.95
2023-07-03T07:26:01.375Z,62.63
2023-07-03T07:27:01.349Z,62.22
2023-07-03T07:28:01.348Z,62.25
2023-07-03T07:29:01.348Z,62.68
2023-07-03T07:30:01.334Z,63.59
2023-07-03T07:31:01.345Z,62.49
2023-07-03T07:32:01.303Z,62.22
2023-07-03T07:33:01.427Z,62.28
2023-07-03T07:34:01.416Z,62.21
2023-07-03T07:35:01.264Z,62.18
2023-07-03T07:36:01.259Z,62.61
2023-07-03T07:37:01.257Z,62.31
2023-07-03T07:38:01.253Z,62.34
2023-07-03T07:39:01.224Z,61.79
2023-07-03T07:40:01.224Z,61.96
2023-07-03T07:41:01.209Z,62.13
2023-07-03T07:42:01.209Z,62.73
2023-07-03T07:43:01.205Z,62.69
2023-07-03T07:44:01.180Z,62.63
2023-07-03T07:45:01.164Z,62.22
2023-07-03T07:46:01.214Z,62.11
2023-07-03T07:47:01.164Z,62.11
2023-07-03T07:48:01.218Z,62.25
2023-07-03T07:49:01.206Z,62.34
2023-07-03T07:50:01.119Z,61.87
2023-07-03T07:51:01.127Z,62.39
2023-07-03T07:52:01.451Z,62.17
2023-07-03T07:53:01.123Z,62.11
2023-07-03T07:54:01.177Z,61.54
2023-07-03T07:55:01.068Z,61.72
2023-07-03T07:56:01.067Z,62.12
2023-07-03T07:57:01.055Z,62.38
2023-07-03T07:58:01.051Z,62.21
2023-07-03T07:59:01.082Z,62.62
2023-07-03T08:00:01.055Z,62.41
2023-07-03T08:01:01.089Z,62.65
2023-07-03T08:02:01.037Z,62.47
2023-07-03T08:03:01.100Z,62.79
2023-07-03T08:04:01.229Z,62.61
2023-07-03T08:05:01.077Z,62.53
2023-07-03T08:06:01.072Z,61.98
2023-07-03T08:07:00.994Z,62.37
2023-07-03T08:08:00.952Z,62.03
2023-07-03T08:09:01.028Z,62.09
2023-07-03T08:10:01.056Z,62.11
2023-07-03T08:11:00.932Z,62.02
2023-07-03T08:12:00.913Z,62.11
2023-07-03T08:13:00.906Z,62.24
2023-07-03T08:14:00.890Z,62.12
2023-07-03T08:15:00.912Z,62.17
2023-07-03T08:16:00.903Z,61.97
2023-07-03T08:17:00.870Z,62.26
2023-07-03T08:18:00.916Z,62.04
2023-07-03T08:19:00.872Z,62.54
2023-07-03T08:20:00.850Z,62.34
2023-07-03T08:21:00.829Z,62.07
2023-07-03T08:22:00.893Z,61.91
2023-07-03T08:23:00.813Z,61.98
2023-07-03T08:24:00.834Z,62.24
2023-07-03T08:25:00.795Z,62.40
2023-07-03T08:26:00.772Z,63.55
2023-07-03T08:27:00.764Z,62.15
2023-07-03T08:28:00.752Z,62.53
2023-07-03T08:29:00.754Z,62.52
2023-07-03T08:30:00.728Z,63.47
2023-07-03T08:31:00.726Z,62.58
2023-07-03T08:32:00.752Z,62.64
2023-07-03T08:33:00.755Z,62.09
2023-07-03T08:34:00.786Z,62.92
2023-07-03T08:38:01.785Z,62.46
2023-07-03T08:39:00.647Z,62.19
2023-07-03T08:40:00.630Z,62.35
2023-07-03T08:41:00.626Z,62.03
2023-07-03T08:42:00.625Z,62.23
2023-07-03T08:43:00.614Z,62.51
2023-07-03T08:44:00.629Z,62.73
2023-07-03T08:45:00.585Z,62.19
2023-07-03T08:46:00.616Z,62.97
2023-07-03T08:47:10.735Z,62.32
2023-07-03T08:48:02.721Z,61.99
2023-07-03T08:49:00.538Z,63.09
2023-07-03T08:50:00.528Z,63.51
2023-07-03T08:51:00.547Z,62.88
2023-07-03T08:52:00.523Z,62.98
2023-07-03T08:53:00.513Z,63.04
2023-07-03T08:54:00.639Z,64.79
2023-07-03T08:55:00.495Z,64.59
2023-07-03T08:56:00.482Z,64.08
2023-07-03T08:57:00.481Z,64.24
2023-07-03T08:58:00.474Z,62.14
2023-07-03T08:59:00.451Z,62.29
2023-07-03T09:00:00.515Z,62.50
2023-07-03T09:01:00.436Z,62.68
2023-07-03T09:02:00.683Z,63.14
2023-07-03T09:03:00.532Z,62.80
2023-07-03T09:04:00.488Z,63.51
2023-07-03T09:05:00.548Z,63.47
2023-07-03T09:06:00.387Z,62.92
2023-07-03T09:07:00.371Z,62.89
2023-07-03T09:08:00.350Z,62.26
2023-07-03T09:09:00.343Z,62.35
2023-07-03T09:10:00.407Z,62.18
2023-07-03T09:11:00.349Z,62.03
2023-07-03T09:12:00.383Z,62.02
2023-07-03T09:13:00.304Z,62.00
2023-07-03T09:14:00.324Z,62.33
2023-07-03T09:15:01.203Z,62.28
2023-07-03T09:16:00.287Z,61.74
2023-07-03T09:17:00.398Z,62.25
2023-07-03T09:18:00.308Z,62.54
2023-07-03T09:19:00.278Z,61.86
2023-07-03T09:20:00.245Z,61.81
2023-07-03T09:21:00.231Z,63.05
2023-07-03T09:22:00.234Z,62.35
2023-07-03T09:23:00.200Z,62.20
2023-07-03T09:24:00.212Z,62.02
2023-07-03T09:25:00.201Z,62.92
2023-07-03T09:26:04.438Z,62.20
2023-07-03T09:27:02.171Z,62.20
2023-07-03T09:28:26.062Z,62.36
2023-07-03T09:29:00.153Z,62.13
2023-07-03T09:30:00.172Z,63.09
2023-07-03T09:31:01.880Z,63.16
2023-07-03T09:32:00.251Z,63.78
2023-07-03T09:33:00.189Z,63.30
2023-07-03T09:34:00.115Z,63.02
2023-07-03T09:35:00.668Z,62.92
2023-07-03T09:36:00.994Z,62.66
2023-07-03T09:37:01.062Z,63.37
2023-07-03T09:38:00.060Z,62.81
2023-07-03T09:39:00.890Z,62.95
2023-07-03T09:40:00.120Z,63.33
2023-07-03T09:41:00.109Z,62.76
2023-07-03T09:42:01.087Z,62.67
2023-07-03T09:43:00.015Z,62.83
2023-07-03T09:44:00.052Z,63.23
2023-07-03T09:44:59.982Z,63.48
2023-07-03T09:45:59.980Z,63.21
2023-07-03T09:46:59.988Z,62.49
2023-07-03T09:48:00.420Z,62.88
2023-07-03T09:48:59.948Z,62.97
2023-07-03T09:49:59.938Z,62.88
2023-07-03T09:51:07.252Z,62.92
2023-07-03T09:52:01.959Z,63.62
2023-07-03T09:53:08.406Z,63.01
2023-07-03T09:54:01.900Z,63.17
2023-07-03T09:54:59.890Z,63.82
2023-07-03T09:55:59.877Z,63.29
2023-07-03T09:57:00.898Z,63.60
2023-07-03T09:57:59.961Z,63.71
2023-07-03T09:58:59.848Z,62.91
2023-07-03T09:59:59.856Z,62.20
2023-07-03T10:01:00.029Z,62.04
2023-07-03T10:04:00.856Z,61.75
2023-07-03T10:07:01.337Z,61.81
2023-07-03T10:07:59.893Z,61.90
2023-07-03T10:12:00.786Z,62.16
2023-07-03T10:12:59.868Z,62.89
2023-07-03T10:13:59.850Z,62.55
2023-07-03T10:14:59.696Z,62.66
2023-07-03T10:15:59.712Z,62.55
2023-07-03T10:16:59.724Z,62.98
2023-07-03T10:17:59.691Z,62.21
2023-07-03T10:18:59.657Z,62.19
2023-07-03T10:19:59.664Z,62.10
2023-07-03T10:20:59.647Z,62.27
2023-07-03T10:21:59.623Z,62.53
2023-07-03T10:22:59.641Z,62.43
2023-07-03T10:23:59.613Z,61.72
2023-07-03T10:24:59.605Z,61.65
2023-07-03T10:25:59.600Z,62.14
2023-07-03T10:26:59.579Z,61.20
2023-07-03T10:27:59.562Z,62.01
2023-07-03T10:28:59.612Z,62.12
2023-07-03T10:29:59.615Z,61.45
2023-07-03T10:30:59.568Z,61.85
2023-07-03T10:31:59.691Z,61.32
2023-07-03T10:32:59.549Z,61.61
2023-07-03T10:34:00.503Z,61.86
2023-07-03T10:34:59.516Z,61.81
2023-07-03T10:35:59.494Z,61.51
2023-07-03T10:36:59.487Z,61.55
2023-07-03T10:37:59.473Z,61.79
2023-07-03T10:38:59.491Z,62.31
2023-07-03T10:39:59.480Z,62.45
2023-07-03T10:40:59.442Z,62.75
2023-07-03T10:41:59.450Z,62.66
2023-07-03T10:42:59.443Z,62.15
2023-07-03T10:43:59.431Z,62.69
2023-07-03T10:44:59.407Z,62.90
2023-07-03T10:45:59.522Z,62.60
2023-07-03T10:46:59.404Z,62.82
2023-07-03T10:47:59.447Z,61.78
2023-07-03T10:48:59.382Z,61.59
2023-07-03T10:49:59.361Z,62.02
2023-07-03T10:50:59.365Z,62.33
2023-07-03T10:51:59.363Z,61.50
2023-07-03T10:52:59.340Z,61.65
2023-07-03T10:53:59.342Z,62.45
2023-07-03T10:54:59.334Z,62.49
2023-07-03T10:55:59.327Z,61.85
2023-07-03T10:56:59.289Z,62.02
2023-07-03T10:57:59.302Z,62.24
2023-07-03T10:58:59.268Z,62.40
2023-07-03T10:59:59.257Z,62.62
2023-07-03T11:00:59.275Z,62.87
2023-07-03T11:01:59.334Z,62.27
2023-07-03T11:02:59.317Z,63.43
2023-07-03T11:04:11.176Z,62.93
2023-07-03T11:05:01.206Z,62.71
2023-07-03T11:05:59.196Z,62.35
2023-07-03T11:06:59.201Z,62.52
2023-07-03T11:07:59.209Z,63.60
2023-07-03T11:08:59.167Z,63.29
2023-07-03T11:09:59.160Z,62.87
2023-07-03T11:10:59.153Z,62.57
2023-07-03T11:11:59.157Z,63.44
2023-07-03T11:12:59.137Z,63.67
2023-07-03T11:13:59.230Z,62.85
2023-07-03T11:14:59.118Z,63.50
2023-07-03T11:15:59.173Z,63.23
2023-07-03T11:16:59.112Z,64.14
2023-07-03T11:20:00.066Z,63.83
2023-07-03T11:23:00.097Z,64.79
2023-07-03T11:23:59.039Z,63.60
2023-07-03T11:24:59.010Z,63.60
2023-07-03T11:27:59.989Z,63.22
2023-07-03T11:28:58.979Z,62.64
2023-07-03T11:29:58.969Z,62.78
2023-07-03T11:30:59.010Z,63.27
2023-07-03T11:31:58.943Z,63.29
2023-07-03T11:32:59.022Z,63.16
2023-07-03T11:35:59.952Z,62.89
2023-07-03T11:39:59.885Z,63.36
2023-07-03T11:40:58.946Z,62.92
2023-07-03T11:43:59.828Z,62.93
2023-07-03T11:44:58.826Z,63.03
2023-07-03T11:45:58.801Z,62.90
2023-07-03T11:46:58.801Z,63.68
2023-07-03T11:47:58.823Z,63.22
2023-07-03T11:48:58.784Z,62.85
2023-07-03T11:49:58.778Z,63.07
2023-07-03T11:50:58.757Z,62.93
2023-07-03T11:51:58.746Z,62.94
2023-07-03T11:52:58.735Z,62.77
2023-07-03T11:53:58.734Z,62.74
2023-07-03T11:54:58.710Z,61.82
2023-07-03T11:55:58.700Z,62.74
2023-07-03T11:56:58.691Z,62.56
2023-07-03T11:58:14.610Z,62.67
2023-07-03T11:59:00.683Z,62.82
2023-07-03T11:59:58.673Z,62.85
2023-07-03T12:00:58.671Z,62.92
2023-07-03T12:01:58.636Z,62.84
2023-07-03T12:02:58.728Z,63.16
2023-07-03T12:03:58.692Z,63.38
2023-07-03T12:04:58.611Z,62.78
2023-07-03T12:05:58.603Z,63.16
2023-07-03T12:06:58.593Z,63.45
2023-07-03T12:07:58.586Z,63.01
2023-07-03T12:08:58.566Z,62.80
2023-07-03T12:09:58.558Z,62.55
2023-07-03T12:10:58.559Z,63.12
2023-07-03T12:11:58.539Z,62.77
2023-07-03T12:12:58.551Z,63.90
2023-07-03T12:13:58.596Z,63.73
2023-07-03T12:14:58.533Z,64.24
2023-07-03T12:15:58.511Z,63.71
2023-07-03T12:16:58.532Z,63.91
2023-07-03T12:17:58.509Z,63.41
2023-07-03T12:18:58.484Z,63.57
2023-07-03T12:19:58.479Z,63.95
2023-07-03T12:20:58.461Z,63.63
2023-07-03T12:21:58.455Z,62.68
2023-07-03T12:22:58.463Z,62.87
2023-07-03T12:23:58.418Z,62.50
2023-07-03T12:24:58.428Z,62.63
2023-07-03T12:25:58.461Z,62.75
2023-07-03T12:26:58.415Z,62.30
2023-07-03T12:27:58.381Z,62.18
2023-07-03T12:28:58.368Z,62.27
2023-07-03T12:29:59.363Z,62.46
2023-07-03T12:30:58.459Z,62.15
2023-07-03T12:31:58.356Z,62.39
2023-07-03T12:32:58.472Z,63.22
2023-07-03T12:33:58.323Z,63.12
2023-07-03T12:34:58.318Z,62.78
2023-07-03T12:35:58.328Z,62.49
2023-07-03T12:37:02.681Z,62.44
2023-07-03T12:37:59.294Z,62.06
2023-07-03T12:38:58.280Z,62.68
2023-07-03T12:39:58.279Z,62.86
2023-07-03T12:40:58.266Z,62.17
2023-07-03T12:41:58.248Z,62.59
2023-07-03T12:42:58.241Z,62.16
2023-07-03T12:44:59.233Z,63.45
2023-07-03T12:45:58.227Z,62.81
2023-07-03T12:46:58.212Z,64.74
2023-07-03T12:47:58.232Z,62.75
2023-07-03T12:48:58.177Z,63.54
2023-07-03T12:49:58.179Z,62.52
2023-07-03T12:50:58.162Z,62.61
2023-07-03T12:51:58.152Z,63.02
2023-07-03T12:52:58.154Z,63.13
2023-07-03T12:53:58.140Z,64.23
2023-07-03T12:55:13.826Z,62.68
2023-07-03T12:56:00.119Z,62.60
2023-07-03T12:56:59.096Z,62.55
2023-07-03T12:57:58.097Z,62.38
2023-07-03T12:58:58.090Z,62.29
2023-07-03T12:59:58.070Z,62.56
2023-07-03T13:00:58.111Z,62.77
2023-07-03T13:01:58.055Z,62.38
2023-07-03T13:02:58.079Z,62.95
2023-07-03T13:03:58.035Z,62.98
2023-07-03T13:04:58.099Z,62.91
2023-07-03T13:05:58.269Z,62.99
2023-07-03T13:06:57.995Z,63.34
2023-07-03T13:07:58.003Z,62.94
2023-07-03T13:08:57.991Z,62.45
2023-07-03T13:09:58.094Z,62.19
2023-07-03T13:10:58.890Z,62.71
2023-07-03T13:11:58.954Z,62.81
2023-07-03T13:12:57.953Z,63.17
2023-07-03T13:13:58.032Z,62.93
2023-07-03T13:14:57.933Z,63.46
2023-07-03T13:15:57.921Z,62.97